sensor_id;sensor_type;location;lat;lon;timestamp;pressure;altitude;pressure_sealevel;temperature;humidity
74578;BME280;63173;49.086;33.418;2023-08-06T00:02:06;65943.25;;;-139.78;100.00
74578;BME280;63173;49.086;33.418;2023-08-06T00:04:32;65943.25;;;-139.78;100.00
74578;BME280;63173;49.086;33.418;2023-08-06T00:06:57;65943.25;;;-139.78;100.00
74578;BME280;63173;49.086;33.418;2023-08-06T00:09:23;65943.25;;;-139.78;100.00
74578;BME280;63173;49.086;33.418;2023-08-06T00:11:48;65943.25;;;-139.78;100.00
74578;BME280;63173;49.086;33.418;2023-08-06T00:14:14;65943.25;;;-139.78;100.00
74578;BME280;63173;49.086;33.418;2023-08-06T00:16:43;65943.25;;;-139.78;100.00
74578;BME280;63173;49.086;33.418;2023-08-06T00:19:08;65943.25;;;-139.78;100.00
74578;BME280;63173;49.086;33.418;2023-08-06T00:21:34;65943.25;;;-139.78;100.00
74578;BME280;63173;49.086;33.418;2023-08-06T00:23:59;65943.25;;;-139.78;100.00
74578;BME280;63173;49.086;33.418;2023-08-06T00:26:24;65943.25;;;-139.78;100.00
74578;BME280;63173;49.086;33.418;2023-08-06T00:28:50;65943.25;;;-139.78;100.00
74578;BME280;63173;49.086;33.418;2023-08-06T00:31:15;65943.25;;;-139.78;100.00
74578;BME280;63173;49.086;33.418;2023-08-06T00:33:41;65943.25;;;-139.78;100.00
74578;BME280;63173;49.086;33.418;2023-08-06T00:36:06;65943.25;;;-139.78;100.00
74578;BME280;63173;49.086;33.418;2023-08-06T00:38:32;65943.25;;;-139.78;100.00
74578;BME280;63173;49.086;33.418;2023-08-06T00:40:57;65943.25;;;-139.78;100.00
74578;BME280;63173;49.086;33.418;2023-08-06T00:43:22;65943.25;;;-139.78;100.00
74578;BME280;63173;49.086;33.418;2023-08-06T00:45:48;65943.25;;;-139.78;100.00
74578;BME280;63173;49.086;33.418;2023-08-06T00:48:14;65943.25;;;-139.78;100.00
74578;BME280;63173;49.086;33.418;2023-08-06T00:50:40;65943.25;;;-139.78;100.00
74578;BME280;63173;49.086;33.418;2023-08-06T00:53:06;65943.25;;;-139.78;100.00
74578;BME280;63173;49.086;33.418;2023-08-06T00:55:32;65943.25;;;-139.78;100.00
74578;BME280;63173;49.086;33.418;2023-08-06T00:57:58;65943.25;;;-139.78;100.00
74578;BME280;63173;49.086;33.418;2023-08-06T01:00:24;65943.25;;;-139.78;100.00
74578;BME280;63173;49.086;33.418;2023-08-06T01:02:50;65943.25;;;-139.78;100.00
74578;BME280;63173;49.086;33.418;2023-08-06T01:05:15;65943.25;;;-139.78;100.00
74578;BME280;63173;49.086;33.418;2023-08-06T01:07:51;65943.25;;;-139.78;100.00
74578;BME280;63173;49.086;33.418;2023-08-06T01:10:45;65943.25;;;-139.78;100.00
74578;BME280;63173;49.086;33.418;2023-08-06T01:15:54;65943.25;;;-139.78;100.00
74578;BME280;63173;49.086;33.418;2023-08-06T01:18:22;65943.25;;;-139.78;100.00
74578;BME280;63173;49.086;33.418;2023-08-06T01:20:48;65943.25;;;-139.78;100.00
74578;BME280;63173;49.086;33.418;2023-08-06T01:23:15;65943.25;;;-139.78;100.00
74578;BME280;63173;49.086;33.418;2023-08-06T01:25:55;65943.25;;;-139.78;100.00
74578;BME280;63173;49.086;33.418;2023-08-06T01:31:15;65943.25;;;-139.78;100.00
74578;BME280;63173;49.086;33.418;2023-08-06T01:33:43;65943.25;;;-139.78;100.00
74578;BME280;63173;49.086;33.418;2023-08-06T01:36:11;65943.25;;;-139.78;100.00
74578;BME280;63173;49.086;33.418;2023-08-06T01:38:36;65943.25;;;-139.78;100.00
74578;BME280;63173;49.086;33.418;2023-08-06T01:41:02;65943.25;;;-139.78;100.00
74578;BME280;63173;49.086;33.418;2023-08-06T01:43:27;65943.25;;;-139.78;100.00
74578;BME280;63173;49.086;33.418;2023-08-06T01:45:52;65943.25;;;-139.78;100.00
74578;BME280;63173;49.086;33.418;2023-08-06T01:48:18;65943.25;;;-139.78;100.00
74578;BME280;63173;49.086;33.418;2023-08-06T01:50:43;65943.25;;;-139.78;100.00
74578;BME280;63173;49.086;33.418;2023-08-06T01:53:09;65943.25;;;-139.78;100.00
74578;BME280;63173;49.086;33.418;2023-08-06T01:55:34;65943.25;;;-139.78;100.00
74578;BME280;63173;49.086;33.418;2023-08-06T01:58:00;65943.25;;;-139.78;100.00
74578;BME280;63173;49.086;33.418;2023-08-06T02:00:25;65943.25;;;-139.78;100.00
74578;BME280;63173;49.086;33.418;2023-08-06T02:02:52;65943.25;;;-139.78;100.00
74578;BME280;63173;49.086;33.418;2023-08-06T02:05:18;65943.25;;;-139.78;100.00
74578;BME280;63173;49.086;33.418;2023-08-06T02:07:43;65943.25;;;-139.78;100.00
74578;BME280;63173;49.086;33.418;2023-08-06T02:10:09;65943.25;;;-139.78;100.00
74578;BME280;63173;49.086;33.418;2023-08-06T02:12:34;65943.25;;;-139.78;100.00
74578;BME280;63173;49.086;33.418;2023-08-06T02:15:00;65943.25;;;-139.78;100.00
74578;BME280;63173;49.086;33.418;2023-08-06T02:17:25;65943.25;;;-139.78;100.00
74578;BME280;63173;49.086;33.418;2023-08-06T02:19:50;65943.25;;;-139.78;100.00
74578;BME280;63173;49.086;33.418;2023-08-06T02:22:16;65943.25;;;-139.78;100.00
74578;BME280;63173;49.086;33.418;2023-08-06T02:24:41;65943.25;;;-139.78;100.00
74578;BME280;63173;49.086;33.418;2023-08-06T02:27:07;65943.25;;;-139.78;100.00
74578;BME280;63173;49.086;33.418;2023-08-06T02:29:32;65943.25;;;-139.78;100.00
74578;BME280;63173;49.086;33.418;2023-08-06T02:31:58;65943.25;;;-139.78;100.00
74578;BME280;63173;49.086;33.418;2023-08-06T02:34:23;65943.25;;;-139.78;100.00
74578;BME280;63173;49.086;33.418;2023-08-06T02:36:48;65943.25;;;-139.78;100.00
74578;BME280;63173;49.086;33.418;2023-08-06T02:39:14;65943.25;;;-139.78;100.00
74578;BME280;63173;49.086;33.418;2023-08-06T02:41:39;65943.25;;;-139.78;100.00
74578;BME280;63173;49.086;33.418;2023-08-06T02:44:05;65943.25;;;-139.78;100.00
74578;BME280;63173;49.086;33.418;2023-08-06T02:46:30;65943.25;;;-139.78;100.00
74578;BME280;63173;49.086;33.418;2023-08-06T02:48:55;65943.25;;;-139.78;100.00
74578;BME280;63173;49.086;33.418;2023-08-06T02:51:21;65943.25;;;-139.78;100.00
74578;BME280;63173;49.086;33.418;2023-08-06T02:53:48;65943.25;;;-139.78;100.00
74578;BME280;63173;49.086;33.418;2023-08-06T02:56:13;65943.25;;;-139.78;100.00
74578;BME280;63173;49.086;33.418;2023-08-06T02:58:39;65943.25;;;-139.78;100.00
74578;BME280;63173;49.086;33.418;2023-08-06T03:01:06;65943.25;;;-139.78;100.00
74578;BME280;63173;49.086;33.418;2023-08-06T03:03:32;65943.25;;;-139.78;100.00
74578;BME280;63173;49.086;33.418;2023-08-06T03:05:58;65943.25;;;-139.78;100.00
74578;BME280;63173;49.086;33.418;2023-08-06T03:08:24;65943.25;;;-139.78;100.00
74578;BME280;63173;49.086;33.418;2023-08-06T03:10:50;65943.25;;;-139.78;100.00
74578;BME280;63173;49.086;33.418;2023-08-06T03:13:16;65943.25;;;-139.78;100.00
74578;BME280;63173;49.086;33.418;2023-08-06T03:15:42;65943.25;;;-139.78;100.00
74578;BME280;63173;49.086;33.418;2023-08-06T03:18:07;65943.25;;;-139.78;100.00
74578;BME280;63173;49.086;33.418;2023-08-06T03:20:33;65943.25;;;-139.78;100.00
74578;BME280;63173;49.086;33.418;2023-08-06T03:22:58;65943.25;;;-139.78;100.00
74578;BME280;63173;49.086;33.418;2023-08-06T03:25:24;65943.25;;;-139.78;100.00
74578;BME280;63173;49.086;33.418;2023-08-06T03:27:49;65943.25;;;-139.78;100.00
74578;BME280;63173;49.086;33.418;2023-08-06T03:30:14;65943.25;;;-139.78;100.00
74578;BME280;63173;49.086;33.418;2023-08-06T03:32:40;65943.25;;;-139.78;100.00
74578;BME280;63173;49.086;33.418;2023-08-06T03:35:06;65943.25;;;-139.78;100.00
74578;BME280;63173;49.086;33.418;2023-08-06T03:37:31;65943.25;;;-139.78;100.00
74578;BME280;63173;49.086;33.418;2023-08-06T03:39:56;65943.25;;;-139.78;100.00
74578;BME280;63173;49.086;33.418;2023-08-06T03:42:22;65943.25;;;-139.78;100.00
74578;BME280;63173;49.086;33.418;2023-08-06T03:44:47;65943.25;;;-139.78;100.00
74578;BME280;63173;49.086;33.418;2023-08-06T03:47:13;65943.25;;;-139.78;100.00
74578;BME280;63173;49.086;33.418;2023-08-06T03:49:39;65943.25;;;-139.78;100.00
74578;BME280;63173;49.086;33.418;2023-08-06T03:52:05;65943.25;;;-139.78;100.00
74578;BME280;63173;49.086;33.418;2023-08-06T03:54:30;65943.25;;;-139.78;100.00
74578;BME280;63173;49.086;33.418;2023-08-06T03:56:56;65943.25;;;-139.78;100.00
74578;BME280;63173;49.086;33.418;2023-08-06T03:59:21;65943.25;;;-139.78;100.00
74578;BME280;63173;49.086;33.418;2023-08-06T04:01:47;65943.25;;;-139.78;100.00
74578;BME280;63173;49.086;33.418;2023-08-06T04:04:12;65943.25;;;-139.78;100.00
74578;BME280;63173;49.086;33.418;2023-08-06T04:06:37;65943.25;;;-139.78;100.00
74578;BME280;63173;49.086;33.418;2023-08-06T04:09:03;65943.25;;;-139.78;100.00
74578;BME280;63173;49.086;33.418;2023-08-06T04:11:28;65943.25;;;-139.78;100.00
74578;BME280;63173;49.086;33.418;2023-08-06T04:13:54;65943.25;;;-139.78;100.00
74578;BME280;63173;49.086;33.418;2023-08-06T04:16:21;65943.25;;;-139.78;100.00
74578;BME280;63173;49.086;33.418;2023-08-06T04:18:46;65943.25;;;-139.78;100.00
74578;BME280;63173;49.086;33.418;2023-08-06T04:21:12;65943.25;;;-139.78;100.00
74578;BME280;63173;49.086;33.418;2023-08-06T04:23:37;65943.25;;;-139.78;100.00
74578;BME280;63173;49.086;33.418;2023-08-06T04:26:03;65943.25;;;-139.78;100.00
74578;BME280;63173;49.086;33.418;2023-08-06T04:28:28;65943.25;;;-139.78;100.00
74578;BME280;63173;49.086;33.418;2023-08-06T04:30:56;65943.25;;;-139.78;100.00
74578;BME280;63173;49.086;33.418;2023-08-06T04:33:22;65943.25;;;-139.78;100.00
74578;BME280;63173;49.086;33.418;2023-08-06T04:35:47;65943.25;;;-139.78;100.00
74578;BME280;63173;49.086;33.418;2023-08-06T04:38:18;65943.25;;;-139.78;100.00
74578;BME280;63173;49.086;33.418;2023-08-06T04:40:44;65943.25;;;-139.78;100.00
74578;BME280;63173;49.086;33.418;2023-08-06T04:43:09;65943.25;;;-139.78;100.00
74578;BME280;63173;49.086;33.418;2023-08-06T04:45:34;65943.25;;;-139.78;100.00
74578;BME280;63173;49.086;33.418;2023-08-06T04:48:00;65943.25;;;-139.78;100.00
74578;BME280;63173;49.086;33.418;2023-08-06T04:50:25;65943.25;;;-139.78;100.00
74578;BME280;63173;49.086;33.418;2023-08-06T04:52:51;65943.25;;;-139.78;100.00
74578;BME280;63173;49.086;33.418;2023-08-06T04:55:16;65943.25;;;-139.78;100.00
74578;BME280;63173;49.086;33.418;2023-08-06T04:57:42;65943.25;;;-139.78;100.00
74578;BME280;63173;49.086;33.418;2023-08-06T05:00:07;65943.25;;;-139.78;100.00
74578;BME280;63173;49.086;33.418;2023-08-06T05:02:33;65943.25;;;-139.78;100.00
74578;BME280;63173;49.086;33.418;2023-08-06T05:04:59;65943.25;;;-139.78;100.00
74578;BME280;63173;49.086;33.418;2023-08-06T05:07:25;65943.25;;;-139.78;100.00
74578;BME280;63173;49.086;33.418;2023-08-06T05:09:50;65943.25;;;-139.78;100.00
74578;BME280;63173;49.086;33.418;2023-08-06T05:12:16;65943.25;;;-139.78;100.00
74578;BME280;63173;49.086;33.418;2023-08-06T05:14:41;65943.25;;;-139.78;100.00
74578;BME280;63173;49.086;33.418;2023-08-06T05:17:07;65943.25;;;-139.78;100.00
74578;BME280;63173;49.086;33.418;2023-08-06T05:19:32;65943.25;;;-139.78;100.00
74578;BME280;63173;49.086;33.418;2023-08-06T05:21:58;65943.25;;;-139.78;100.00
74578;BME280;63173;49.086;33.418;2023-08-06T05:24:23;65943.25;;;-139.78;100.00
74578;BME280;63173;49.086;33.418;2023-08-06T05:26:48;65943.25;;;-139.78;100.00
74578;BME280;63173;49.086;33.418;2023-08-06T05:29:16;65943.25;;;-139.78;100.00
74578;BME280;63173;49.086;33.418;2023-08-06T05:31:41;65943.25;;;-139.78;100.00
74578;BME280;63173;49.086;33.418;2023-08-06T05:34:07;65943.25;;;-139.78;100.00
74578;BME280;63173;49.086;33.418;2023-08-06T05:36:32;65943.25;;;-139.78;100.00
74578;BME280;63173;49.086;33.418;2023-08-06T05:38:58;65943.25;;;-139.78;100.00
74578;BME280;63173;49.086;33.418;2023-08-06T05:41:23;65943.25;;;-139.78;100.00
74578;BME280;63173;49.086;33.418;2023-08-06T05:43:49;65943.25;;;-139.78;100.00
74578;BME280;63173;49.086;33.418;2023-08-06T05:46:14;65943.25;;;-139.78;100.00
74578;BME280;63173;49.086;33.418;2023-08-06T05:48:40;65943.25;;;-139.78;100.00
74578;BME280;63173;49.086;33.418;2023-08-06T05:51:05;65943.25;;;-139.78;100.00
74578;BME280;63173;49.086;33.418;2023-08-06T05:53:31;65943.25;;;-139.78;100.00
74578;BME280;63173;49.086;33.418;2023-08-06T05:55:56;65943.25;;;-139.78;100.00
74578;BME280;63173;49.086;33.418;2023-08-06T05:58:22;65943.25;;;-139.78;100.00
74578;BME280;63173;49.086;33.418;2023-08-06T06:00:49;65943.25;;;-139.78;100.00
74578;BME280;63173;49.086;33.418;2023-08-06T06:03:14;65943.25;;;-139.78;100.00
74578;BME280;63173;49.086;33.418;2023-08-06T06:05:40;65943.25;;;-139.78;100.00
74578;BME280;63173;49.086;33.418;2023-08-06T06:08:06;65943.25;;;-139.78;100.00
74578;BME280;63173;49.086;33.418;2023-08-06T06:10:31;65943.25;;;-139.78;100.00
74578;BME280;63173;49.086;33.418;2023-08-06T06:12:57;65943.25;;;-139.78;100.00
74578;BME280;63173;49.086;33.418;2023-08-06T06:15:22;65943.25;;;-139.78;100.00
74578;BME280;63173;49.086;33.418;2023-08-06T06:17:48;65943.25;;;-139.78;100.00
74578;BME280;63173;49.086;33.418;2023-08-06T06:20:13;65943.25;;;-139.78;100.00
74578;BME280;63173;49.086;33.418;2023-08-06T06:22:38;65943.25;;;-139.78;100.00
74578;BME280;63173;49.086;33.418;2023-08-06T06:25:04;65943.25;;;-139.78;100.00
74578;BME280;63173;49.086;33.418;2023-08-06T06:27:30;65943.25;;;-139.78;100.00
74578;BME280;63173;49.086;33.418;2023-08-06T06:29:55;65943.25;;;-139.78;100.00
74578;BME280;63173;49.086;33.418;2023-08-06T06:32:21;65943.25;;;-139.78;100.00
74578;BME280;63173;49.086;33.418;2023-08-06T06:34:47;65943.25;;;-139.78;100.00
74578;BME280;63173;49.086;33.418;2023-08-06T06:37:12;65943.25;;;-139.78;100.00
74578;BME280;63173;49.086;33.418;2023-08-06T06:39:38;65943.25;;;-139.78;100.00
74578;BME280;63173;49.086;33.418;2023-08-06T06:42:04;65943.25;;;-139.78;100.00
74578;BME280;63173;49.086;33.418;2023-08-06T06:44:30;65943.25;;;-139.78;100.00
74578;BME280;63173;49.086;33.418;2023-08-06T06:46:55;65943.25;;;-139.78;100.00
74578;BME280;63173;49.086;33.418;2023-08-06T06:49:20;65943.25;;;-139.78;100.00
74578;BME280;63173;49.086;33.418;2023-08-06T06:51:46;65943.25;;;-139.78;100.00
74578;BME280;63173;49.086;33.418;2023-08-06T06:54:11;65943.25;;;-139.78;100.00
74578;BME280;63173;49.086;33.418;2023-08-06T06:56:37;65943.25;;;-139.78;100.00
74578;BME280;63173;49.086;33.418;2023-08-06T06:59:02;65943.25;;;-139.78;100.00
74578;BME280;63173;49.086;33.418;2023-08-06T07:01:28;65943.25;;;-139.78;100.00
74578;BME280;63173;49.086;33.418;2023-08-06T07:03:53;65943.25;;;-139.78;100.00
74578;BME280;63173;49.086;33.418;2023-08-06T07:06:18;65943.25;;;-139.78;100.00
74578;BME280;63173;49.086;33.418;2023-08-06T07:08:45;65943.25;;;-139.78;100.00
74578;BME280;63173;49.086;33.418;2023-08-06T07:11:10;65943.25;;;-139.78;100.00
74578;BME280;63173;49.086;33.418;2023-08-06T07:13:36;65943.25;;;-139.78;100.00
74578;BME280;63173;49.086;33.418;2023-08-06T07:16:01;65943.25;;;-139.78;100.00
74578;BME280;63173;49.086;33.418;2023-08-06T07:18:27;65943.25;;;-139.78;100.00
74578;BME280;63173;49.086;33.418;2023-08-06T07:20:54;65943.25;;;-139.78;100.00
74578;BME280;63173;49.086;33.418;2023-08-06T07:23:25;65943.25;;;-139.78;100.00
74578;BME280;63173;49.086;33.418;2023-08-06T07:25:51;65943.25;;;-139.78;100.00
74578;BME280;63173;49.086;33.418;2023-08-06T07:28:17;65943.25;;;-139.78;100.00
74578;BME280;63173;49.086;33.418;2023-08-06T07:30:44;65943.25;;;-139.78;100.00
74578;BME280;63173;49.086;33.418;2023-08-06T07:33:09;65943.25;;;-139.78;100.00
74578;BME280;63173;49.086;33.418;2023-08-06T07:35:36;65943.25;;;-139.78;100.00
74578;BME280;63173;49.086;33.418;2023-08-06T07:38:02;65943.25;;;-139.78;100.00
74578;BME280;63173;49.086;33.418;2023-08-06T07:40:28;65943.25;;;-139.78;100.00
74578;BME280;63173;49.086;33.418;2023-08-06T07:42:53;65943.25;;;-139.78;100.00
74578;BME280;63173;49.086;33.418;2023-08-06T07:45:19;65943.25;;;-139.78;100.00
74578;BME280;63173;49.086;33.418;2023-08-06T07:47:45;65943.25;;;-139.78;100.00
74578;BME280;63173;49.086;33.418;2023-08-06T07:50:10;65943.25;;;-139.78;100.00
74578;BME280;63173;49.086;33.418;2023-08-06T07:52:36;65943.25;;;-139.78;100.00
74578;BME280;63173;49.086;33.418;2023-08-06T07:55:01;65943.25;;;-139.78;100.00
74578;BME280;63173;49.086;33.418;2023-08-06T07:57:33;65943.25;;;-139.78;100.00
74578;BME280;63173;49.086;33.418;2023-08-06T08:00:00;65943.25;;;-139.78;100.00
74578;BME280;63173;49.086;33.418;2023-08-06T08:02:25;65943.25;;;-139.78;100.00
74578;BME280;63173;49.086;33.418;2023-08-06T08:04:50;65943.25;;;-139.78;100.00
74578;BME280;63173;49.086;33.418;2023-08-06T08:07:16;65943.25;;;-139.78;100.00
74578;BME280;63173;49.086;33.418;2023-08-06T08:09:41;65943.25;;;-139.78;100.00
74578;BME280;63173;49.086;33.418;2023-08-06T08:12:07;65943.25;;;-139.78;100.00
74578;BME280;63173;49.086;33.418;2023-08-06T08:14:33;65943.25;;;-139.78;100.00
74578;BME280;63173;49.086;33.418;2023-08-06T08:17:03;65943.25;;;-139.78;100.00
74578;BME280;63173;49.086;33.418;2023-08-06T08:19:29;65943.25;;;-139.78;100.00
74578;BME280;63173;49.086;33.418;2023-08-06T08:21:55;65943.25;;;-139.78;100.00
74578;BME280;63173;49.086;33.418;2023-08-06T08:24:21;65943.25;;;-139.78;100.00
74578;BME280;63173;49.086;33.418;2023-08-06T08:26:52;65943.25;;;-139.78;100.00
74578;BME280;63173;49.086;33.418;2023-08-06T08:29:21;65943.25;;;-139.78;100.00
74578;BME280;63173;49.086;33.418;2023-08-06T08:31:47;65943.25;;;-139.78;100.00
74578;BME280;63173;49.086;33.418;2023-08-06T08:34:15;65943.25;;;-139.78;100.00
74578;BME280;63173;49.086;33.418;2023-08-06T08:36:40;65943.25;;;-139.78;100.00
74578;BME280;63173;49.086;33.418;2023-08-06T08:39:08;65943.25;;;-139.78;100.00
74578;BME280;63173;49.086;33.418;2023-08-06T08:41:36;65943.25;;;-139.78;100.00
74578;BME280;63173;49.086;33.418;2023-08-06T08:44:02;65943.25;;;-139.78;100.00
74578;BME280;63173;49.086;33.418;2023-08-06T08:46:30;65943.25;;;-139.78;100.00
74578;BME280;63173;49.086;33.418;2023-08-06T08:48:59;65943.25;;;-139.78;100.00
74578;BME280;63173;49.086;33.418;2023-08-06T08:51:27;65943.25;;;-139.78;100.00
74578;BME280;63173;49.086;33.418;2023-08-06T08:53:53;65943.25;;;-139.78;100.00
74578;BME280;63173;49.086;33.418;2023-08-06T08:56:23;65943.25;;;-139.78;100.00
74578;BME280;63173;49.086;33.418;2023-08-06T08:58:49;65943.25;;;-139.78;100.00
74578;BME280;63173;49.086;33.418;2023-08-06T09:01:15;65943.25;;;-139.78;100.00
74578;BME280;63173;49.086;33.418;2023-08-06T09:03:42;65943.25;;;-139.78;100.00
74578;BME280;63173;49.086;33.418;2023-08-06T09:06:12;65943.25;;;-139.78;100.00
74578;BME280;63173;49.086;33.418;2023-08-06T09:08:47;65943.25;;;-139.78;100.00
74578;BME280;63173;49.086;33.418;2023-08-06T09:11:14;65943.25;;;-139.78;100.00
74578;BME280;63173;49.086;33.418;2023-08-06T09:13:41;65943.25;;;-139.78;100.00
74578;BME280;63173;49.086;33.418;2023-08-06T09:16:06;65943.25;;;-139.78;100.00
74578;BME280;63173;49.086;33.418;2023-08-06T09:18:32;65943.25;;;-139.78;100.00
74578;BME280;63173;49.086;33.418;2023-08-06T09:20:57;65943.25;;;-139.78;100.00
74578;BME280;63173;49.086;33.418;2023-08-06T09:23:31;65943.25;;;-139.78;100.00
74578;BME280;63173;49.086;33.418;2023-08-06T09:25:59;65943.25;;;-139.78;100.00
74578;BME280;63173;49.086;33.418;2023-08-06T09:28:39;65943.25;;;-139.78;100.00
74578;BME280;63173;49.086;33.418;2023-08-06T09:31:07;65943.25;;;-139.78;100.00
74578;BME280;63173;49.086;33.418;2023-08-06T09:33:33;65943.25;;;-139.78;100.00
74578;BME280;63173;49.086;33.418;2023-08-06T09:36:07;65943.25;;;-139.78;100.00
74578;BME280;63173;49.086;33.418;2023-08-06T09:38:38;65943.25;;;-139.78;100.00
74578;BME280;63173;49.086;33.418;2023-08-06T09:41:05;65943.25;;;-139.78;100.00
74578;BME280;63173;49.086;33.418;2023-08-06T09:43:39;65943.25;;;-139.78;100.00
74578;BME280;63173;49.086;33.418;2023-08-06T09:46:11;65943.25;;;-139.78;100.00
74578;BME280;63173;49.086;33.418;2023-08-06T09:48:38;65943.25;;;-139.78;100.00
74578;BME280;63173;49.086;33.418;2023-08-06T09:51:04;65943.25;;;-139.78;100.00
74578;BME280;63173;49.086;33.418;2023-08-06T09:53:31;65943.25;;;-139.78;100.00
74578;BME280;63173;49.086;33.418;2023-08-06T09:55:59;65943.25;;;-139.78;100.00
74578;BME280;63173;49.086;33.418;2023-08-06T09:58:25;65943.25;;;-139.78;100.00
74578;BME280;63173;49.086;33.418;2023-08-06T10:00:52;65943.25;;;-139.78;100.00
74578;BME280;63173;49.086;33.418;2023-08-06T10:03:18;65943.25;;;-139.78;100.00
74578;BME280;63173;49.086;33.418;2023-08-06T10:05:47;65943.25;;;-139.78;100.00
74578;BME280;63173;49.086;33.418;2023-08-06T10:08:13;65943.25;;;-139.78;100.00
74578;BME280;63173;49.086;33.418;2023-08-06T10:10:38;65943.25;;;-139.78;100.00
74578;BME280;63173;49.086;33.418;2023-08-06T10:13:05;65943.25;;;-139.78;100.00
74578;BME280;63173;49.086;33.418;2023-08-06T10:15:32;65943.25;;;-139.78;100.00
74578;BME280;63173;49.086;33.418;2023-08-06T10:17:59;65943.25;;;-139.78;100.00
74578;BME280;63173;49.086;33.418;2023-08-06T10:20:26;65943.25;;;-139.78;100.00
74578;BME280;63173;49.086;33.418;2023-08-06T10:23:05;65943.25;;;-139.78;100.00
74578;BME280;63173;49.086;33.418;2023-08-06T10:25:36;65943.25;;;-139.78;100.00
74578;BME280;63173;49.086;33.418;2023-08-06T10:28:09;65943.25;;;-139.78;100.00
74578;BME280;63173;49.086;33.418;2023-08-06T10:30:42;65943.25;;;-139.78;100.00
74578;BME280;63173;49.086;33.418;2023-08-06T10:33:08;65943.25;;;-139.78;100.00
74578;BME280;63173;49.086;33.418;2023-08-06T10:35:37;65943.25;;;-139.78;100.00
74578;BME280;63173;49.086;33.418;2023-08-06T10:38:07;65943.25;;;-139.78;100.00
74578;BME280;63173;49.086;33.418;2023-08-06T10:40:35;65943.25;;;-139.78;100.00
74578;BME280;63173;49.086;33.418;2023-08-06T10:43:04;65943.25;;;-139.78;100.00
74578;BME280;63173;49.086;33.418;2023-08-06T10:45:37;65943.25;;;-139.78;100.00
74578;BME280;63173;49.086;33.418;2023-08-06T10:48:03;65943.25;;;-139.78;100.00
74578;BME280;63173;49.086;33.418;2023-08-06T10:50:29;65943.25;;;-139.78;100.00
74578;BME280;63173;49.086;33.418;2023-08-06T10:52:57;65943.25;;;-139.78;100.00
74578;BME280;63173;49.086;33.418;2023-08-06T10:55:27;65943.25;;;-139.78;100.00
74578;BME280;63173;49.086;33.418;2023-08-06T10:57:54;65943.25;;;-139.78;100.00
74578;BME280;63173;49.086;33.418;2023-08-06T11:00:22;65943.25;;;-139.78;100.00
74578;BME280;63173;49.086;33.418;2023-08-06T11:02:49;65943.25;;;-139.78;100.00
74578;BME280;63173;49.086;33.418;2023-08-06T11:05:15;65943.25;;;-139.78;100.00
74578;BME280;63173;49.086;33.418;2023-08-06T11:07:41;65943.25;;;-139.78;100.00
74578;BME280;63173;49.086;33.418;2023-08-06T11:10:09;65943.25;;;-139.78;100.00
74578;BME280;63173;49.086;33.418;2023-08-06T11:12:35;65943.25;;;-139.78;100.00
74578;BME280;63173;49.086;33.418;2023-08-06T11:15:02;65943.25;;;-139.78;100.00
74578;BME280;63173;49.086;33.418;2023-08-06T11:17:28;65943.25;;;-139.78;100.00
74578;BME280;63173;49.086;33.418;2023-08-06T11:19:54;65943.25;;;-139.78;100.00
74578;BME280;63173;49.086;33.418;2023-08-06T11:22:23;65943.25;;;-139.78;100.00
74578;BME280;63173;49.086;33.418;2023-08-06T11:24:48;65943.25;;;-139.78;100.00
74578;BME280;63173;49.086;33.418;2023-08-06T11:27:15;65943.25;;;-139.78;100.00
74578;BME280;63173;49.086;33.418;2023-08-06T11:29:41;65943.25;;;-139.78;100.00
74578;BME280;63173;49.086;33.418;2023-08-06T11:32:07;65943.25;;;-139.78;100.00
74578;BME280;63173;49.086;33.418;2023-08-06T11:34:33;65943.25;;;-139.78;100.00
74578;BME280;63173;49.086;33.418;2023-08-06T11:36:58;65943.25;;;-139.78;100.00
74578;BME280;63173;49.086;33.418;2023-08-06T11:39:24;65943.25;;;-139.78;100.00
74578;BME280;63173;49.086;33.418;2023-08-06T11:41:50;65943.25;;;-139.78;100.00
74578;BME280;63173;49.086;33.418;2023-08-06T11:44:19;65943.25;;;-139.78;100.00
74578;BME280;63173;49.086;33.418;2023-08-06T11:46:55;65943.25;;;-139.78;100.00
74578;BME280;63173;49.086;33.418;2023-08-06T11:52:17;65943.25;;;-139.78;100.00
74578;BME280;63173;49.086;33.418;2023-08-06T11:54:45;65943.25;;;-139.78;100.00
74578;BME280;63173;49.086;33.418;2023-08-06T11:58:03;99507.84;;;47.94;16.74
74578;BME280;63173;49.086;33.418;2023-08-06T12:00:30;99506.03;;;47.50;16.10
74578;BME280;63173;49.086;33.418;2023-08-06T12:02:56;99491.72;;;47.99;16.06
74578;BME280;63173;49.086;33.418;2023-08-06T12:05:23;99505.00;;;48.22;16.17
74578;BME280;63173;49.086;33.418;2023-08-06T12:07:51;99490.50;;;48.07;15.98
74578;BME280;63173;49.086;33.418;2023-08-06T12:10:18;99494.75;;;48.14;15.74
74578;BME280;63173;49.086;33.418;2023-08-06T12:12:45;99499.50;;;49.77;14.61
74578;BME280;63173;49.086;33.418;2023-08-06T12:15:11;99494.25;;;48.02;15.54
74578;BME280;63173;49.086;33.418;2023-08-06T12:17:37;99495.47;;;49.80;14.67
74578;BME280;63173;49.086;33.418;2023-08-06T12:20:03;99494.03;;;47.39;15.99
74578;BME280;63173;49.086;33.418;2023-08-06T12:22:30;99491.41;;;50.06;14.18
74578;BME280;63173;49.086;33.418;2023-08-06T12:25:00;99487.06;;;47.34;16.43
74578;BME280;63173;49.086;33.418;2023-08-06T12:27:26;99485.44;;;48.92;15.46